Overview Statistics Trail Chart Weather Telemetry Raw packets
 

This is the latest recevied weather packets stored in our database for station/object ED4YAF-13. If no packets are shown the sender has not sent any weather packets the latest 10 day(s).

<< 3 4 5 6 7 8 9 >>
Time Temp. Humidity Pressure Rain* Wind** Luminosity Snow
1788505022 21.11° C 22% 1020.1 hPa - - - -
1788503317 20.56° C 23% 1020.4 hPa - - - -
1788502409 20.56° C 24% 1020.4 hPa - - - -
1788501509 20.56° C 25% 1020.3 hPa - - - -
1788500609 20° C 27% 1020.5 hPa - - - -
1788499708 20.56° C 27% 1020.3 hPa - - - -
1788498808 20.56° C 27% 1020.2 hPa - - - -
1788497908 20.56° C 27% 1020.1 hPa - - - -
1788497000 20.56° C 27% 1020.3 hPa - - - -
1788496100 20.56° C 25% 1020.2 hPa - - - -
1788495201 20.56° C 25% 1020.2 hPa - - - -
1788494289 20.56° C 24% 1020.4 hPa - - - -
1788493381 20.56° C 24% 1020.5 hPa - - - -
1788491575 20.56° C 24% 1020.6 hPa - - - -
1788490683 20.56° C 25% 1020.8 hPa - - - -
1788489775 20.56° C 25% 1020.9 hPa - - - -
1788488883 20.56° C 25% 1020.8 hPa - - - -
1788487980 20.56° C 25% 1020.9 hPa - - - -
1788487075 20.56° C 25% 1021 hPa - - - -
1788486175 20.56° C 25% 1020.9 hPa - - - -
1788485274 21.11° C 25% 1020.8 hPa - - - -
1788482564 21.11° C 22% 1020.9 hPa - - - -
1788481672 21.11° C 22% 1020.9 hPa - - - -
1788480764 21.67° C 22% 1021 hPa - - - -
1788479864 21.67° C 20% 1020.9 hPa - - - -

* Rain since midnight (hover to see other rain measurements)
** Current wind speed in m/s (hover to see current wind gust speed)